sensor_id;sensor_type;location;lat;lon;timestamp;pressure;altitude;pressure_sealevel;temperature;humidity
20021;BME280;10171;42.694;23.318;2023-08-07T00:00:31;94516.25;;;20.56;nan
20021;BME280;10171;42.694;23.318;2023-08-07T00:02:56;94507.69;;;20.33;nan
20021;BME280;10171;42.694;23.318;2023-08-07T00:05:22;94512.00;;;20.18;nan
20021;BME280;10171;42.694;23.318;2023-08-07T00:07:48;94510.53;;;20.23;nan
20021;BME280;10171;42.694;23.318;2023-08-07T00:10:13;94505.06;;;20.18;nan
20021;BME280;10171;42.694;23.318;2023-08-07T00:12:39;94491.41;;;20.24;nan
20021;BME280;10171;42.694;23.318;2023-08-07T00:15:05;94507.03;;;20.16;nan
20021;BME280;10171;42.694;23.318;2023-08-07T00:17:31;94509.66;;;20.31;nan
20021;BME280;10171;42.694;23.318;2023-08-07T00:19:56;94513.34;;;20.36;nan
20021;BME280;10171;42.694;23.318;2023-08-07T00:22:22;94507.69;;;20.33;nan
20021;BME280;10171;42.694;23.318;2023-08-07T00:24:47;94514.31;;;20.13;nan
20021;BME280;10171;42.694;23.318;2023-08-07T00:27:13;94512.84;;;20.18;nan
20021;BME280;10171;42.694;23.318;2023-08-07T00:29:39;94507.94;;;20.23;nan
20021;BME280;10171;42.694;23.318;2023-08-07T00:32:05;94504.28;;;20.10;nan
20021;BME280;10171;42.694;23.318;2023-08-07T00:34:30;94513.81;;;20.17;nan
20021;BME280;10171;42.694;23.318;2023-08-07T00:36:56;94517.72;;;20.13;nan
20021;BME280;10171;42.694;23.318;2023-08-07T00:39:22;94516.81;;;20.06;nan
20021;BME280;10171;42.694;23.318;2023-08-07T00:41:47;94514.56;;;20.03;nan
20021;BME280;10171;42.694;23.318;2023-08-07T00:44:13;94513.34;;;20.14;nan
20021;BME280;10171;42.694;23.318;2023-08-07T00:46:39;94511.63;;;20.06;nan
20021;BME280;10171;42.694;23.318;2023-08-07T00:49:05;94511.09;;;20.11;nan
20021;BME280;10171;42.694;23.318;2023-08-07T00:51:31;94514.97;;;20.15;nan
20021;BME280;10171;42.694;23.318;2023-08-07T00:53:57;94518.09;;;20.10;nan
20021;BME280;10171;42.694;23.318;2023-08-07T00:56:24;94520.38;;;20.05;nan
20021;BME280;10171;42.694;23.318;2023-08-07T00:58:50;94530.59;;;19.99;nan
20021;BME280;10171;42.694;23.318;2023-08-07T01:01:16;94523.38;;;19.86;nan
20021;BME280;10171;42.694;23.318;2023-08-07T01:03:41;94536.59;;;19.61;nan
20021;BME280;10171;42.694;23.318;2023-08-07T01:06:07;94539.72;;;19.57;nan
20021;BME280;10171;42.694;23.318;2023-08-07T01:08:32;94547.19;;;19.52;nan
20021;BME280;10171;42.694;23.318;2023-08-07T01:16:35;94545.81;;;19.01;nan
20021;BME280;10171;42.694;23.318;2023-08-07T01:19:04;94567.16;;;19.27;nan
20021;BME280;10171;42.694;23.318;2023-08-07T01:21:33;94566.50;;;19.33;nan
20021;BME280;10171;42.694;23.318;2023-08-07T01:23:59;94557.25;;;19.47;nan
20021;BME280;10171;42.694;23.318;2023-08-07T01:26:24;94555.25;;;19.57;nan
20021;BME280;10171;42.694;23.318;2023-08-07T01:28:58;94562.09;;;19.50;nan
20021;BME280;10171;42.694;23.318;2023-08-07T01:31:28;94558.22;;;19.46;nan
20021;BME280;10171;42.694;23.318;2023-08-07T01:33:57;94556.28;;;19.48;nan
20021;BME280;10171;42.694;23.318;2023-08-07T01:36:27;94555.94;;;19.51;nan
20021;BME280;10171;42.694;23.318;2023-08-07T01:38:55;94555.44;;;19.47;nan
20021;BME280;10171;42.694;23.318;2023-08-07T01:41:23;94550.72;;;19.59;nan
20021;BME280;10171;42.694;23.318;2023-08-07T01:43:49;94537.97;;;19.41;nan
20021;BME280;10171;42.694;23.318;2023-08-07T01:46:14;94549.78;;;19.52;nan
20021;BME280;10171;42.694;23.318;2023-08-07T01:48:40;94543.69;;;19.37;nan
20021;BME280;10171;42.694;23.318;2023-08-07T01:51:05;94541.25;;;19.35;nan
20021;BME280;10171;42.694;23.318;2023-08-07T01:53:31;94546.50;;;19.58;nan
20021;BME280;10171;42.694;23.318;2023-08-07T01:55:56;94553.34;;;19.51;nan
20021;BME280;10171;42.694;23.318;2023-08-07T01:58:22;94550.75;;;19.51;nan
20021;BME280;10171;42.694;23.318;2023-08-07T02:00:47;94549.78;;;19.52;nan
20021;BME280;10171;42.694;23.318;2023-08-07T02:03:13;94549.50;;;19.39;nan
20021;BME280;10171;42.694;23.318;2023-08-07T02:05:38;94556.41;;;19.54;nan
20021;BME280;10171;42.694;23.318;2023-08-07T02:08:04;94559.13;;;19.61;nan
20021;BME280;10171;42.694;23.318;2023-08-07T02:10:29;94563.00;;;19.65;nan
20021;BME280;10171;42.694;23.318;2023-08-07T02:12:57;94563.66;;;19.67;nan
20021;BME280;10171;42.694;23.318;2023-08-07T02:15:22;94568.19;;;19.65;nan
20021;BME280;10171;42.694;23.318;2023-08-07T02:17:48;94573.91;;;19.44;nan
20021;BME280;10171;42.694;23.318;2023-08-07T02:20:13;94572.81;;;19.39;nan
20021;BME280;10171;42.694;23.318;2023-08-07T02:22:39;94577.66;;;19.42;nan
20021;BME280;10171;42.694;23.318;2023-08-07T02:25:04;94579.41;;;19.49;nan
20021;BME280;10171;42.694;23.318;2023-08-07T02:27:30;94564.22;;;19.38;nan
20021;BME280;10171;42.694;23.318;2023-08-07T02:29:55;94577.03;;;19.32;nan
20021;BME280;10171;42.694;23.318;2023-08-07T02:32:21;94584.66;;;19.25;nan
20021;BME280;10171;42.694;23.318;2023-08-07T02:34:47;94588.84;;;19.26;nan
20021;BME280;10171;42.694;23.318;2023-08-07T02:37:12;94586.72;;;19.46;nan
20021;BME280;10171;42.694;23.318;2023-08-07T02:39:38;94567.09;;;19.51;nan
20021;BME280;10171;42.694;23.318;2023-08-07T02:42:03;94581.69;;;19.44;nan
20021;BME280;10171;42.694;23.318;2023-08-07T02:44:29;94578.81;;;19.31;nan
20021;BME280;10171;42.694;23.318;2023-08-07T02:46:54;94577.06;;;19.24;nan
20021;BME280;10171;42.694;23.318;2023-08-07T02:49:20;94584.19;;;19.22;nan
20021;BME280;10171;42.694;23.318;2023-08-07T02:51:45;94591.63;;;19.17;nan
20021;BME280;10171;42.694;23.318;2023-08-07T02:54:11;94588.97;;;19.49;nan
20021;BME280;10171;42.694;23.318;2023-08-07T02:56:36;94583.81;;;19.41;nan
20021;BME280;10171;42.694;23.318;2023-08-07T02:59:01;94586.34;;;19.57;nan
20021;BME280;10171;42.694;23.318;2023-08-07T03:01:27;94587.69;;;19.45;nan
20021;BME280;10171;42.694;23.318;2023-08-07T03:03:53;94598.84;;;19.45;nan
20021;BME280;10171;42.694;23.318;2023-08-07T03:06:18;94598.72;;;19.31;nan
20021;BME280;10171;42.694;23.318;2023-08-07T03:08:44;94595.97;;;19.32;nan
20021;BME280;10171;42.694;23.318;2023-08-07T03:11:09;94600.03;;;19.35;nan
20021;BME280;10171;42.694;23.318;2023-08-07T03:13:35;94598.22;;;19.35;nan
20021;BME280;10171;42.694;23.318;2023-08-07T03:16:05;94604.41;;;19.18;nan
20021;BME280;10171;42.694;23.318;2023-08-07T03:18:31;94607.50;;;19.22;nan
20021;BME280;10171;42.694;23.318;2023-08-07T03:20:57;94615.72;;;19.09;nan
20021;BME280;10171;42.694;23.318;2023-08-07T03:23:24;94613.97;;;19.02;nan
20021;BME280;10171;42.694;23.318;2023-08-07T03:25:49;94617.66;;;19.07;nan
20021;BME280;10171;42.694;23.318;2023-08-07T03:28:16;94627.88;;;19.17;nan
20021;BME280;10171;42.694;23.318;2023-08-07T03:30:41;94623.66;;;19.24;nan
20021;BME280;10171;42.694;23.318;2023-08-07T03:33:07;94618.19;;;19.19;nan
20021;BME280;10171;42.694;23.318;2023-08-07T03:35:33;94637.25;;;19.42;nan
20021;BME280;10171;42.694;23.318;2023-08-07T03:37:58;94636.72;;;19.46;nan
20021;BME280;10171;42.694;23.318;2023-08-07T03:40:24;94641.63;;;19.25;nan
20021;BME280;10171;42.694;23.318;2023-08-07T03:42:49;94658.63;;;19.28;nan
20021;BME280;10171;42.694;23.318;2023-08-07T03:45:14;94653.59;;;19.18;nan
20021;BME280;10171;42.694;23.318;2023-08-07T03:47:40;94662.66;;;19.14;nan
20021;BME280;10171;42.694;23.318;2023-08-07T03:50:06;94663.31;;;19.16;nan
20021;BME280;10171;42.694;23.318;2023-08-07T03:52:31;94661.69;;;19.23;nan
20021;BME280;10171;42.694;23.318;2023-08-07T03:54:57;94669.47;;;19.31;nan
20021;BME280;10171;42.694;23.318;2023-08-07T03:57:22;94650.19;;;19.10;nan
20021;BME280;10171;42.694;23.318;2023-08-07T03:59:48;94669.13;;;19.18;nan
20021;BME280;10171;42.694;23.318;2023-08-07T04:02:13;94663.78;;;19.04;nan
20021;BME280;10171;42.694;23.318;2023-08-07T04:04:39;94663.28;;;18.92;nan
20021;BME280;10171;42.694;23.318;2023-08-07T04:07:04;94662.50;;;18.84;nan
20021;BME280;10171;42.694;23.318;2023-08-07T04:09:30;94676.41;;;18.91;nan
20021;BME280;10171;42.694;23.318;2023-08-07T04:11:56;94671.19;;;18.67;nan
20021;BME280;10171;42.694;23.318;2023-08-07T04:14:22;94671.22;;;18.75;nan
20021;BME280;10171;42.694;23.318;2023-08-07T04:16:47;94688.03;;;18.71;nan
20021;BME280;10171;42.694;23.318;2023-08-07T04:19:12;94680.75;;;18.82;nan
20021;BME280;10171;42.694;23.318;2023-08-07T04:21:38;94690.09;;;18.67;nan
20021;BME280;10171;42.694;23.318;2023-08-07T04:24:03;94688.34;;;18.68;nan
20021;BME280;10171;42.694;23.318;2023-08-07T04:26:36;94684.16;;;18.75;nan
20021;BME280;10171;42.694;23.318;2023-08-07T04:29:02;94692.25;;;18.88;nan
20021;BME280;10171;42.694;23.318;2023-08-07T04:31:27;94700.66;;;18.74;nan
20021;BME280;10171;42.694;23.318;2023-08-07T04:33:53;94689.81;;;18.86;nan
20021;BME280;10171;42.694;23.318;2023-08-07T04:36:18;94696.94;;;19.00;nan
20021;BME280;10171;42.694;23.318;2023-08-07T04:38:44;94615.06;;;18.43;nan
20021;BME280;10171;42.694;23.318;2023-08-07T04:41:09;94696.28;;;18.98;nan
20021;BME280;10171;42.694;23.318;2023-08-07T04:43:35;94698.41;;;18.95;nan
20021;BME280;10171;42.694;23.318;2023-08-07T04:46:00;94685.16;;;18.98;nan
20021;BME280;10171;42.694;23.318;2023-08-07T04:48:26;94698.41;;;19.03;nan
20021;BME280;10171;42.694;23.318;2023-08-07T04:50:51;94708.56;;;18.88;nan
20021;BME280;10171;42.694;23.318;2023-08-07T04:53:17;94688.69;;;18.89;nan
20021;BME280;10171;42.694;23.318;2023-08-07T04:55:42;94690.66;;;19.03;nan
20021;BME280;10171;42.694;23.318;2023-08-07T04:58:08;94694.22;;;19.02;nan
20021;BME280;10171;42.694;23.318;2023-08-07T05:00:34;94695.19;;;19.09;nan
20021;BME280;10171;42.694;23.318;2023-08-07T05:02:59;94690.66;;;19.03;nan
20021;BME280;10171;42.694;23.318;2023-08-07T05:05:25;94684.50;;;18.88;nan
20021;BME280;10171;42.694;23.318;2023-08-07T05:07:50;94680.25;;;18.71;nan
20021;BME280;10171;42.694;23.318;2023-08-07T05:10:16;94683.53;;;18.89;nan
20021;BME280;10171;42.694;23.318;2023-08-07T05:12:41;94676.22;;;19.00;nan
20021;BME280;10171;42.694;23.318;2023-08-07T05:15:07;94680.44;;;19.01;nan
20021;BME280;10171;42.694;23.318;2023-08-07T05:17:32;94683.53;;;19.05;nan
20021;BME280;10171;42.694;23.318;2023-08-07T05:19:58;94683.88;;;19.18;nan
20021;BME280;10171;42.694;23.318;2023-08-07T05:22:23;94684.31;;;19.13;nan
20021;BME280;10171;42.694;23.318;2023-08-07T05:24:49;94674.63;;;19.23;nan
20021;BME280;10171;42.694;23.318;2023-08-07T05:27:14;94678.53;;;19.27;nan
20021;BME280;10171;42.694;23.318;2023-08-07T05:29:40;94677.72;;;19.35;nan
20021;BME280;10171;42.694;23.318;2023-08-07T05:32:13;94686.63;;;19.32;nan
20021;BME280;10171;42.694;23.318;2023-08-07T05:34:39;94686.78;;;19.39;nan
20021;BME280;10171;42.694;23.318;2023-08-07T05:37:05;94685.28;;;19.12;nan
20021;BME280;10171;42.694;23.318;2023-08-07T05:39:31;94674.59;;;18.75;nan
20021;BME280;10171;42.694;23.318;2023-08-07T05:41:56;94686.06;;;18.65;nan
20021;BME280;10171;42.694;23.318;2023-08-07T05:44:26;94702.06;;;18.60;nan
20021;BME280;10171;42.694;23.318;2023-08-07T05:46:51;94702.25;;;18.75;nan
20021;BME280;10171;42.694;23.318;2023-08-07T05:49:17;94698.41;;;19.11;nan
20021;BME280;10171;42.694;23.318;2023-08-07T05:51:42;94701.38;;;19.24;nan
20021;BME280;10171;42.694;23.318;2023-08-07T05:54:08;94690.03;;;19.17;nan
20021;BME280;10171;42.694;23.318;2023-08-07T05:56:33;94692.94;;;19.22;nan
20021;BME280;10171;42.694;23.318;2023-08-07T05:58:59;94695.53;;;19.30;nan
20021;BME280;10171;42.694;23.318;2023-08-07T06:01:25;94686.78;;;19.39;nan
20021;BME280;10171;42.694;23.318;2023-08-07T06:03:56;94697.13;;;19.55;nan
20021;BME280;10171;42.694;23.318;2023-08-07T06:06:21;94683.31;;;19.70;nan
20021;BME280;10171;42.694;23.318;2023-08-07T06:08:47;94675.88;;;19.67;nan
20021;BME280;10171;42.694;23.318;2023-08-07T06:11:12;94691.22;;;19.92;nan
20021;BME280;10171;42.694;23.318;2023-08-07T06:13:38;94674.38;;;19.88;nan
20021;BME280;10171;42.694;23.318;2023-08-07T06:16:03;94681.63;;;20.01;nan
20021;BME280;10171;42.694;23.318;2023-08-07T06:18:29;94675.13;;;20.05;nan
20021;BME280;10171;42.694;23.318;2023-08-07T06:20:56;94676.06;;;20.20;nan
20021;BME280;10171;42.694;23.318;2023-08-07T06:23:21;94670.72;;;20.21;nan
20021;BME280;10171;42.694;23.318;2023-08-07T06:25:47;94664.66;;;20.29;nan
20021;BME280;10171;42.694;23.318;2023-08-07T06:28:12;94677.56;;;20.45;nan
20021;BME280;10171;42.694;23.318;2023-08-07T06:30:38;94671.94;;;20.33;nan
20021;BME280;10171;42.694;23.318;2023-08-07T06:33:03;94659.72;;;20.42;nan
20021;BME280;10171;42.694;23.318;2023-08-07T06:35:29;94669.38;;;20.56;nan
20021;BME280;10171;42.694;23.318;2023-08-07T06:37:54;94658.78;;;20.65;nan
20021;BME280;10171;42.694;23.318;2023-08-07T06:40:20;94671.34;;;20.54;nan
20021;BME280;10171;42.694;23.318;2023-08-07T06:42:45;94673.28;;;20.52;nan
20021;BME280;10171;42.694;23.318;2023-08-07T06:45:11;94673.34;;;20.74;nan
20021;BME280;10171;42.694;23.318;2023-08-07T06:47:36;94672.97;;;20.85;nan
20021;BME280;10171;42.694;23.318;2023-08-07T06:50:02;94684.69;;;20.73;nan
20021;BME280;10171;42.694;23.318;2023-08-07T06:52:27;94681.72;;;20.54;nan
20021;BME280;10171;42.694;23.318;2023-08-07T06:54:53;94682.59;;;20.69;nan
20021;BME280;10171;42.694;23.318;2023-08-07T06:57:18;94690.19;;;20.78;nan
20021;BME280;10171;42.694;23.318;2023-08-07T06:59:43;94693.00;;;20.99;nan
20021;BME280;10171;42.694;23.318;2023-08-07T07:02:09;94680.38;;;20.96;nan
20021;BME280;10171;42.694;23.318;2023-08-07T07:04:34;94689.66;;;21.13;nan
20021;BME280;10171;42.694;23.318;2023-08-07T07:07:02;94690.06;;;21.02;nan
20021;BME280;10171;42.694;23.318;2023-08-07T07:09:27;94684.69;;;21.03;nan
20021;BME280;10171;42.694;23.318;2023-08-07T07:11:54;94673.81;;;21.22;nan
20021;BME280;10171;42.694;23.318;2023-08-07T07:14:20;94685.47;;;21.26;nan
20021;BME280;10171;42.694;23.318;2023-08-07T07:16:45;94683.22;;;21.23;nan
20021;BME280;10171;42.694;23.318;2023-08-07T07:19:10;94681.16;;;21.56;nan
20021;BME280;10171;42.694;23.318;2023-08-07T07:21:36;94679.91;;;21.52;nan
20021;BME280;10171;42.694;23.318;2023-08-07T07:24:02;94687.66;;;21.37;nan
20021;BME280;10171;42.694;23.318;2023-08-07T07:26:27;94684.78;;;21.32;nan
20021;BME280;10171;42.694;23.318;2023-08-07T07:28:53;94671.41;;;21.35;nan
20021;BME280;10171;42.694;23.318;2023-08-07T07:31:18;94675.63;;;21.36;nan
20021;BME280;10171;42.694;23.318;2023-08-07T07:33:44;94676.81;;;21.34;nan
20021;BME280;10171;42.694;23.318;2023-08-07T07:36:17;94671.84;;;21.24;nan
20021;BME280;10171;42.694;23.318;2023-08-07T07:38:43;94677.47;;;21.50;nan
20021;BME280;10171;42.694;23.318;2023-08-07T07:41:08;94657.34;;;21.67;nan
20021;BME280;10171;42.694;23.318;2023-08-07T07:43:36;94667.75;;;21.81;nan
20021;BME280;10171;42.694;23.318;2023-08-07T07:46:02;94666.88;;;21.89;nan
20021;BME280;10171;42.694;23.318;2023-08-07T07:48:27;94656.09;;;22.21;nan
20021;BME280;10171;42.694;23.318;2023-08-07T07:50:58;94665.50;;;22.22;nan
20021;BME280;10171;42.694;23.318;2023-08-07T07:53:24;94671.53;;;22.08;nan
20021;BME280;10171;42.694;23.318;2023-08-07T07:55:49;94668.56;;;21.96;nan
20021;BME280;10171;42.694;23.318;2023-08-07T07:58:15;94662.84;;;21.72;nan
20021;BME280;10171;42.694;23.318;2023-08-07T08:00:40;94665.16;;;21.96;nan
20021;BME280;10171;42.694;23.318;2023-08-07T08:03:06;94656.56;;;21.81;nan
20021;BME280;10171;42.694;23.318;2023-08-07T08:05:31;94657.63;;;22.01;nan
20021;BME280;10171;42.694;23.318;2023-08-07T08:07:57;94655.56;;;21.96;nan
20021;BME280;10171;42.694;23.318;2023-08-07T08:10:22;94656.19;;;22.13;nan
20021;BME280;10171;42.694;23.318;2023-08-07T08:12:48;94670.81;;;22.14;nan
20021;BME280;10171;42.694;23.318;2023-08-07T08:15:13;94667.38;;;22.28;nan
20021;BME280;10171;42.694;23.318;2023-08-07T08:17:38;94654.44;;;22.34;nan
20021;BME280;10171;42.694;23.318;2023-08-07T08:20:05;94662.44;;;22.47;nan
20021;BME280;10171;42.694;23.318;2023-08-07T08:22:31;94645.81;;;22.48;nan
20021;BME280;10171;42.694;23.318;2023-08-07T08:24:56;94646.38;;;22.79;nan
20021;BME280;10171;42.694;23.318;2023-08-07T08:27:22;94640.97;;;22.80;nan
20021;BME280;10171;42.694;23.318;2023-08-07T08:29:48;94643.63;;;22.66;nan
20021;BME280;10171;42.694;23.318;2023-08-07T08:32:13;94643.97;;;22.77;nan
20021;BME280;10171;42.694;23.318;2023-08-07T08:34:39;94648.44;;;22.83;nan
20021;BME280;10171;42.694;23.318;2023-08-07T08:37:05;94643.84;;;23.06;nan
20021;BME280;10171;42.694;23.318;2023-08-07T08:39:31;94645.19;;;23.02;nan
20021;BME280;10171;42.694;23.318;2023-08-07T08:41:56;94637.69;;;23.14;nan
20021;BME280;10171;42.694;23.318;2023-08-07T08:44:24;94643.22;;;23.25;nan
20021;BME280;10171;42.694;23.318;2023-08-07T08:46:51;94639.13;;;23.37;nan
20021;BME280;10171;42.694;23.318;2023-08-07T08:49:24;94635.56;;;23.45;nan
20021;BME280;10171;42.694;23.318;2023-08-07T08:51:53;94629.94;;;23.48;nan
20021;BME280;10171;42.694;23.318;2023-08-07T08:54:18;94634.72;;;23.65;nan
20021;BME280;10171;42.694;23.318;2023-08-07T08:56:45;94631.50;;;23.70;nan
20021;BME280;10171;42.694;23.318;2023-08-07T08:59:10;94616.84;;;23.62;nan
20021;BME280;10171;42.694;23.318;2023-08-07T09:01:37;94620.38;;;23.55;nan
20021;BME280;10171;42.694;23.318;2023-08-07T09:04:02;94618.69;;;23.74;nan
20021;BME280;10171;42.694;23.318;2023-08-07T09:06:31;94620.81;;;23.85;nan
20021;BME280;10171;42.694;23.318;2023-08-07T09:08:57;94618.47;;;23.97;nan
20021;BME280;10171;42.694;23.318;2023-08-07T09:11:24;94625.53;;;24.09;nan
20021;BME280;10171;42.694;23.318;2023-08-07T09:13:50;94627.03;;;24.25;nan
20021;BME280;10171;42.694;23.318;2023-08-07T09:16:16;94628.75;;;24.11;nan
20021;BME280;10171;42.694;23.318;2023-08-07T09:18:42;94622.59;;;24.19;nan
20021;BME280;10171;42.694;23.318;2023-08-07T09:21:08;94617.25;;;24.46;nan
20021;BME280;10171;42.694;23.318;2023-08-07T09:23:34;94609.81;;;24.43;nan
20021;BME280;10171;42.694;23.318;2023-08-07T09:26:03;94612.22;;;24.38;nan
20021;BME280;10171;42.694;23.318;2023-08-07T09:28:30;94597.66;;;24.57;nan
20021;BME280;10171;42.694;23.318;2023-08-07T09:30:56;94598.47;;;24.64;nan
20021;BME280;10171;42.694;23.318;2023-08-07T09:33:26;94600.25;;;24.63;nan
20021;BME280;10171;42.694;23.318;2023-08-07T09:35:53;94601.31;;;24.88;nan
20021;BME280;10171;42.694;23.318;2023-08-07T09:38:22;94607.75;;;24.99;nan
20021;BME280;10171;42.694;23.318;2023-08-07T09:40:49;94601.34;;;25.08;nan
20021;BME280;10171;42.694;23.318;2023-08-07T09:43:20;94587.25;;;25.09;nan
20021;BME280;10171;42.694;23.318;2023-08-07T09:45:46;94593.09;;;25.56;nan
20021;BME280;10171;42.694;23.318;2023-08-07T09:48:11;94591.66;;;25.60;nan
20021;BME280;10171;42.694;23.318;2023-08-07T09:50:38;94597.47;;;25.75;nan
20021;BME280;10171;42.694;23.318;2023-08-07T09:53:03;94579.19;;;25.68;nan
20021;BME280;10171;42.694;23.318;2023-08-07T09:55:29;94591.88;;;25.84;nan
20021;BME280;10171;42.694;23.318;2023-08-07T09:57:54;94581.34;;;25.97;nan
20021;BME280;10171;42.694;23.318;2023-08-07T10:00:20;94586.00;;;25.89;nan
20021;BME280;10171;42.694;23.318;2023-08-07T10:02:47;94591.38;;;26.07;nan
20021;BME280;10171;42.694;23.318;2023-08-07T10:05:14;94585.72;;;26.10;nan
20021;BME280;10171;42.694;23.318;2023-08-07T10:07:40;94601.81;;;26.20;nan
20021;BME280;10171;42.694;23.318;2023-08-07T10:10:07;94598.53;;;26.37;nan
20021;BME280;10171;42.694;23.318;2023-08-07T10:12:33;94575.91;;;26.43;nan
20021;BME280;10171;42.694;23.318;2023-08-07T10:14:59;94590.22;;;26.53;nan
20021;BME280;10171;42.694;23.318;2023-08-07T10:17:25;94585.53;;;26.61;nan
20021;BME280;10171;42.694;23.318;2023-08-07T10:19:51;94595.72;;;26.76;nan
20021;BME280;10171;42.694;23.318;2023-08-07T10:22:19;94586.44;;;26.80;nan
20021;BME280;10171;42.694;23.318;2023-08-07T10:24:47;94584.03;;;27.09;nan
20021;BME280;10171;42.694;23.318;2023-08-07T10:27:15;94585.53;;;26.92;nan
20021;BME280;10171;42.694;23.318;2023-08-07T10:29:42;94598.59;;;26.99;nan
20021;BME280;10171;42.694;23.318;2023-08-07T10:32:10;94585.53;;;27.23;nan
20021;BME280;10171;42.694;23.318;2023-08-07T10:34:38;94583.03;;;27.35;nan
20021;BME280;10171;42.694;23.318;2023-08-07T10:37:07;94580.00;;;27.56;nan
20021;BME280;10171;42.694;23.318;2023-08-07T10:39:33;94574.91;;;27.61;nan
20021;BME280;10171;42.694;23.318;2023-08-07T10:41:59;94568.84;;;27.85;nan
20021;BME280;10171;42.694;23.318;2023-08-07T10:44:29;94584.53;;;27.67;nan
20021;BME280;10171;42.694;23.318;2023-08-07T10:46:56;94573.06;;;27.86;nan
20021;BME280;10171;42.694;23.318;2023-08-07T10:49:39;94573.56;;;27.94;nan
20021;BME280;10171;42.694;23.318;2023-08-07T10:54:38;94564.03;;;27.99;nan
20021;BME280;10171;42.694;23.318;2023-08-07T10:57:10;94563.59;;;27.85;nan
20021;BME280;10171;42.694;23.318;2023-08-07T10:59:37;94559.94;;;27.86;nan
20021;BME280;10171;42.694;23.318;2023-08-07T11:02:07;94554.84;;;28.08;nan
20021;BME280;10171;42.694;23.318;2023-08-07T11:04:36;94535.94;;;28.00;nan
20021;BME280;10171;42.694;23.318;2023-08-07T11:07:02;94546.84;;;28.15;nan
20021;BME280;10171;42.694;23.318;2023-08-07T11:09:27;94555.19;;;28.30;nan
20021;BME280;10171;42.694;23.318;2023-08-07T11:11:53;94545.75;;;28.40;nan
20021;BME280;10171;42.694;23.318;2023-08-07T11:14:19;94542.38;;;28.51;nan
20021;BME280;10171;42.694;23.318;2023-08-07T11:16:47;94540.84;;;28.73;nan
20021;BME280;10171;42.694;23.318;2023-08-07T11:19:17;94534.00;;;28.72;nan
20021;BME280;10171;42.694;23.318;2023-08-07T11:21:43;94524.78;;;28.93;nan
20021;BME280;10171;42.694;23.318;2023-08-07T11:24:13;94522.16;;;28.93;nan
20021;BME280;10171;42.694;23.318;2023-08-07T11:26:43;94525.72;;;28.57;nan
20021;BME280;10171;42.694;23.318;2023-08-07T11:29:09;94515.16;;;27.98;nan
20021;BME280;10171;42.694;23.318;2023-08-07T11:31:34;94526.38;;;27.88;nan
20021;BME280;10171;42.694;23.318;2023-08-07T11:34:00;94529.16;;;27.75;nan
20021;BME280;10171;42.694;23.318;2023-08-07T11:36:28;94530.56;;;27.35;nan
20021;BME280;10171;42.694;23.318;2023-08-07T11:38:54;94528.47;;;27.19;nan
20021;BME280;10171;42.694;23.318;2023-08-07T11:41:19;94513.03;;;27.29;nan
20021;BME280;10171;42.694;23.318;2023-08-07T11:43:45;94515.50;;;27.24;nan
20021;BME280;10171;42.694;23.318;2023-08-07T11:46:14;94521.16;;;26.96;nan
20021;BME280;10171;42.694;23.318;2023-08-07T11:48:41;94524.97;;;26.76;nan
20021;BME280;10171;42.694;23.318;2023-08-07T11:51:07;94513.56;;;26.64;nan
20021;BME280;10171;42.694;23.318;2023-08-07T11:53:37;94516.69;;;26.48;nan
20021;BME280;10171;42.694;23.318;2023-08-07T11:56:07;94528.66;;;26.93;nan
20021;BME280;10171;42.694;23.318;2023-08-07T11:58:42;94522.53;;;27.30;nan
20021;BME280;10171;42.694;23.318;2023-08-07T12:01:21;94512.81;;;27.91;nan
20021;BME280;10171;42.694;23.318;2023-08-07T12:04:08;94520.66;;;28.26;nan
20021;BME280;10171;42.694;23.318;2023-08-07T12:06:34;94508.13;;;28.28;nan
20021;BME280;10171;42.694;23.318;2023-08-07T12:09:05;94497.38;;;28.30;nan
20021;BME280;10171;42.694;23.318;2023-08-07T12:11:37;94500.28;;;28.40;nan
20021;BME280;10171;42.694;23.318;2023-08-07T12:14:02;94497.59;;;28.87;nan
20021;BME280;10171;42.694;23.318;2023-08-07T12:16:32;94493.94;;;28.88;nan
20021;BME280;10171;42.694;23.318;2023-08-07T12:18:59;94498.75;;;28.62;nan
20021;BME280;10171;42.694;23.318;2023-08-07T12:21:25;94496.69;;;28.64;nan
20021;BME280;10171;42.694;23.318;2023-08-07T12:23:54;94489.88;;;28.45;nan
20021;BME280;10171;42.694;23.318;2023-08-07T12:26:20;94488.59;;;28.36;nan
20021;BME280;10171;42.694;23.318;2023-08-07T12:28:45;94497.63;;;28.28;nan
20021;BME280;10171;42.694;23.318;2023-08-07T12:31:11;94491.66;;;27.86;nan
20021;BME280;10171;42.694;23.318;2023-08-07T12:33:36;94492.66;;;28.02;nan
20021;BME280;10171;42.694;23.318;2023-08-07T12:36:02;94489.47;;;27.65;nan
20021;BME280;10171;42.694;23.318;2023-08-07T12:38:27;94490.91;;;27.43;nan
20021;BME280;10171;42.694;23.318;2023-08-07T12:40:53;94498.94;;;27.48;nan
20021;BME280;10171;42.694;23.318;2023-08-07T12:43:19;94490.81;;;27.74;nan
20021;BME280;10171;42.694;23.318;2023-08-07T12:45:44;94504.66;;;27.98;nan
20021;BME280;10171;42.694;23.318;2023-08-07T12:48:10;94495.13;;;28.15;nan
20021;BME280;10171;42.694;23.318;2023-08-07T12:50:36;94499.56;;;28.33;nan
20021;BME280;10171;42.694;23.318;2023-08-07T12:53:02;94501.09;;;28.40;nan
20021;BME280;10171;42.694;23.318;2023-08-07T12:55:27;94500.88;;;28.24;nan
20021;BME280;10171;42.694;23.318;2023-08-07T12:57:54;94505.91;;;28.43;nan
20021;BME280;10171;42.694;23.318;2023-08-07T13:00:20;94507.91;;;28.71;nan
20021;BME280;10171;42.694;23.318;2023-08-07T13:02:47;94511.94;;;28.73;nan
20021;BME280;10171;42.694;23.318;2023-08-07T13:05:13;94514.44;;;28.68;nan
20021;BME280;10171;42.694;23.318;2023-08-07T13:07:40;94519.97;;;28.49;nan
20021;BME280;10171;42.694;23.318;2023-08-07T13:10:08;94502.88;;;28.28;nan
20021;BME280;10171;42.694;23.318;2023-08-07T13:12:38;94513.75;;;28.73;nan